Time;durP1;ratioP1;P1;durP2;ratioP2;P2;SDS_P1;SDS_P2;PMS_P1;PMS_P2;Temp;Humidity;BMP_temperature;BMP_pressure;BME280_temperature;BME280_humidity;BME280_pressure;Samples;Min_cycle;Max_cycle;Signal;HPM_P1;HPM_P2
2021/01/19 00:00:07;;;;;;;4;2.4;;;;;;;-0.54;83.96582;95790.8;;;;
2021/01/19 00:01:09;;;;;;;4;2.4;;;;;;;-0.54;83.96582;95790.8;;;;
2021/01/19 00:02:09;;;;;;;4;2.4;;;;;;;-0.54;83.96582;95790.8;;;;
2021/01/19 00:03:10;;;;;;;4;2.4;;;;;;;-0.54;83.96582;95790.8;;;;
2021/01/19 00:04:11;;;;;;;4;2.4;;;;;;;-0.54;83.96582;95790.8;;;;
2021/01/19 00:05:11;;;;;;;4;2.4;;;;;;;-0.54;83.96582;95790.8;;;;
2021/01/19 00:06:12;;;;;;;4;2.4;;;;;;;-0.54;83.96582;95790.8;;;;
2021/01/19 00:07:15;;;;;;;4;2.4;;;;;;;-0.54;83.96582;95790.8;;;;
2021/01/19 00:08:15;;;;;;;3.65;2.45;;;;;;;-0.72;83.65137;95774.49;;;;
2021/01/19 00:09:16;;;;;;;3.65;2.45;;;;;;;-0.72;83.65137;95774.49;;;;
2021/01/19 00:10:16;;;;;;;3.65;2.45;;;;;;;-0.72;83.65137;95774.49;;;;
2021/01/19 00:11:17;;;;;;;3.65;2.45;;;;;;;-0.72;83.65137;95774.49;;;;
2021/01/19 00:12:18;;;;;;;3.65;2.45;;;;;;;-0.72;83.65137;95774.49;;;;
2021/01/19 00:13:20;;;;;;;3.65;2.45;;;;;;;-0.72;83.65137;95774.49;;;;
2021/01/19 00:14:20;;;;;;;3.65;2.45;;;;;;;-0.72;83.65137;95774.49;;;;
2021/01/19 00:15:21;;;;;;;3.65;2.45;;;;;;;-0.72;83.65137;95774.49;;;;
2021/01/19 00:16:21;;;;;;;3.65;2.45;;;;;;;-0.72;83.65137;95774.49;;;;
2021/01/19 00:17:22;;;;;;;3.65;2.45;;;;;;;-0.72;83.65137;95774.49;;;;
2021/01/19 00:18:22;;;;;;;3.65;2.45;;;;;;;-0.72;83.65137;95774.49;;;;
2021/01/19 00:19:23;;;;;;;4.95;2.75;;;;;;;-0.89;83.58496;95759.89;;;;
2021/01/19 00:20:23;;;;;;;4.95;2.75;;;;;;;-0.89;83.58496;95759.89;;;;
2021/01/19 00:21:24;;;;;;;4.95;2.75;;;;;;;-0.89;83.58496;95759.89;;;;
2021/01/19 00:22:25;;;;;;;4.95;2.75;;;;;;;-0.89;83.58496;95759.89;;;;
2021/01/19 00:23:26;;;;;;;4.95;2.75;;;;;;;-0.89;83.58496;95759.89;;;;
2021/01/19 00:24:26;;;;;;;4.95;2.75;;;;;;;-0.89;83.58496;95759.89;;;;
2021/01/19 00:25:26;;;;;;;4.95;2.75;;;;;;;-0.89;83.58496;95759.89;;;;
2021/01/19 00:26:27;;;;;;;4.95;2.75;;;;;;;-0.89;83.58496;95759.89;;;;
2021/01/19 00:27:27;;;;;;;4.95;2.75;;;;;;;-0.89;83.58496;95759.89;;;;
2021/01/19 00:28:28;;;;;;;4.95;2.75;;;;;;;-0.89;83.58496;95759.89;;;;
2021/01/19 00:29:28;;;;;;;4.600001;2.6;;;;;;;-1.15;83.54688;95750.16;;;;
2021/01/19 00:30:29;;;;;;;4.600001;2.6;;;;;;;-1.15;83.54688;95750.16;;;;
2021/01/19 00:31:29;;;;;;;4.600001;2.6;;;;;;;-1.15;83.54688;95750.16;;;;
2021/01/19 00:32:30;;;;;;;4.600001;2.6;;;;;;;-1.15;83.54688;95750.16;;;;
2021/01/19 00:33:30;;;;;;;4.600001;2.6;;;;;;;-1.15;83.54688;95750.16;;;;
2021/01/19 00:34:31;;;;;;;4.600001;2.6;;;;;;;-1.15;83.54688;95750.16;;;;
2021/01/19 00:35:31;;;;;;;4.600001;2.6;;;;;;;-1.15;83.54688;95750.16;;;;
2021/01/19 00:36:32;;;;;;;4.600001;2.6;;;;;;;-1.15;83.54688;95750.16;;;;
2021/01/19 00:37:32;;;;;;;4.600001;2.6;;;;;;;-1.15;83.54688;95750.16;;;;
2021/01/19 00:38:33;;;;;;;4.600001;2.6;;;;;;;-1.15;83.54688;95750.16;;;;
2021/01/19 00:39:33;;;;;;;4.600001;2.6;;;;;;;-1.15;83.54688;95750.16;;;;
2021/01/19 00:40:34;;;;;;;4.450001;3;;;;;;;-1.46;83.54688;95746.33;;;;
2021/01/19 00:41:35;;;;;;;4.450001;3;;;;;;;-1.46;83.54688;95746.33;;;;
2021/01/19 00:42:35;;;;;;;4.450001;3;;;;;;;-1.46;83.54688;95746.33;;;;
2021/01/19 00:43:36;;;;;;;4.450001;3;;;;;;;-1.46;83.54688;95746.33;;;;
2021/01/19 00:44:36;;;;;;;4.450001;3;;;;;;;-1.46;83.54688;95746.33;;;;
2021/01/19 00:45:37;;;;;;;4.450001;3;;;;;;;-1.46;83.54688;95746.33;;;;
2021/01/19 00:46:37;;;;;;;4.450001;3;;;;;;;-1.46;83.54688;95746.33;;;;
2021/01/19 00:47:38;;;;;;;4.450001;3;;;;;;;-1.46;83.54688;95746.33;;;;
2021/01/19 00:48:38;;;;;;;4.450001;3;;;;;;;-1.46;83.54688;95746.33;;;;
2021/01/19 00:49:38;;;;;;;4.450001;3;;;;;;;-1.46;83.54688;95746.33;;;;
2021/01/19 00:50:39;;;;;;;4.450001;3;;;;;;;-1.46;83.54688;95746.33;;;;
2021/01/19 00:51:40;;;;;;;4.849999;3.35;;;;;;;-1.76;83.57031;95740.89;;;;
2021/01/19 00:52:40;;;;;;;4.849999;3.35;;;;;;;-1.76;83.57031;95740.89;;;;
2021/01/19 00:53:41;;;;;;;4.849999;3.35;;;;;;;-1.76;83.57031;95740.89;;;;
2021/01/19 00:54:43;;;;;;;4.849999;3.35;;;;;;;-1.76;83.57031;95740.89;;;;
2021/01/19 00:55:43;;;;;;;4.849999;3.35;;;;;;;-1.76;83.57031;95740.89;;;;
2021/01/19 00:56:44;;;;;;;4.849999;3.35;;;;;;;-1.76;83.57031;95740.89;;;;
2021/01/19 00:57:45;;;;;;;4.849999;3.35;;;;;;;-1.76;83.57031;95740.89;;;;
2021/01/19 00:58:46;;;;;;;4.849999;3.35;;;;;;;-1.76;83.57031;95740.89;;;;
2021/01/19 00:59:47;;;;;;;4.849999;3.35;;;;;;;-1.76;83.57031;95740.89;;;;
2021/01/19 01:00:47;;;;;;;4.849999;3.35;;;;;;;-1.76;83.57031;95740.89;;;;
2021/01/19 01:01:48;;;;;;;4.550001;3.4;;;;;;;-2.05;83.40918;95731.41;;;;
2021/01/19 01:02:49;;;;;;;4.550001;3.4;;;;;;;-2.05;83.40918;95731.41;;;;
2021/01/19 01:03:49;;;;;;;4.550001;3.4;;;;;;;-2.05;83.40918;95731.41;;;;
2021/01/19 01:04:50;;;;;;;4.550001;3.4;;;;;;;-2.05;83.40918;95731.41;;;;
2021/01/19 01:05:50;;;;;;;4.550001;3.4;;;;;;;-2.05;83.40918;95731.41;;;;
2021/01/19 01:06:51;;;;;;;4.550001;3.4;;;;;;;-2.05;83.40918;95731.41;;;;
2021/01/19 01:07:52;;;;;;;4.550001;3.4;;;;;;;-2.05;83.40918;95731.41;;;;
2021/01/19 01:08:53;;;;;;;4.550001;3.4;;;;;;;-2.05;83.40918;95731.41;;;;
2021/01/19 01:09:53;;;;;;;4.550001;3.4;;;;;;;-2.05;83.40918;95731.41;;;;
2021/01/19 01:10:53;;;;;;;4.550001;3.4;;;;;;;-2.05;83.40918;95731.41;;;;
2021/01/19 01:11:54;;;;;;;4.550001;3.4;;;;;;;-2.05;83.40918;95731.41;;;;
2021/01/19 01:12:54;;;;;;;4.950001;3.35;;;;;;;-2.27;83.69824;95727.86;;;;
2021/01/19 01:13:55;;;;;;;4.950001;3.35;;;;;;;-2.27;83.69824;95727.86;;;;
2021/01/19 01:14:56;;;;;;;4.950001;3.35;;;;;;;-2.27;83.69824;95727.86;;;;
2021/01/19 01:15:56;;;;;;;4.950001;3.35;;;;;;;-2.27;83.69824;95727.86;;;;
2021/01/19 01:16:57;;;;;;;4.950001;3.35;;;;;;;-2.27;83.69824;95727.86;;;;
2021/01/19 01:17:57;;;;;;;4.950001;3.35;;;;;;;-2.27;83.69824;95727.86;;;;
2021/01/19 01:18:58;;;;;;;4.950001;3.35;;;;;;;-2.27;83.69824;95727.86;;;;
2021/01/19 01:19:58;;;;;;;4.950001;3.35;;;;;;;-2.27;83.69824;95727.86;;;;
2021/01/19 01:20:59;;;;;;;4.950001;3.35;;;;;;;-2.27;83.69824;95727.86;;;;
2021/01/19 01:22:00;;;;;;;4.950001;3.35;;;;;;;-2.27;83.69824;95727.86;;;;
2021/01/19 01:23:01;;;;;;;6.05;3.25;;;;;;;-2.4;83.46484;95731.33;;;;
2021/01/19 01:24:02;;;;;;;6.05;3.25;;;;;;;-2.4;83.46484;95731.33;;;;
2021/01/19 01:25:04;;;;;;;6.05;3.25;;;;;;;-2.4;83.46484;95731.33;;;;
2021/01/19 01:26:05;;;;;;;6.05;3.25;;;;;;;-2.4;83.46484;95731.33;;;;
2021/01/19 01:27:05;;;;;;;6.05;3.25;;;;;;;-2.4;83.46484;95731.33;;;;
2021/01/19 01:28:06;;;;;;;6.05;3.25;;;;;;;-2.4;83.46484;95731.33;;;;
2021/01/19 01:29:06;;;;;;;6.05;3.25;;;;;;;-2.4;83.46484;95731.33;;;;
2021/01/19 01:30:07;;;;;;;6.05;3.25;;;;;;;-2.4;83.46484;95731.33;;;;
2021/01/19 01:31:10;;;;;;;6.05;3.25;;;;;;;-2.4;83.46484;95731.33;;;;
2021/01/19 01:32:11;;;;;;;6.05;3.25;;;;;;;-2.4;83.46484;95731.33;;;;
2021/01/19 01:33:11;;;;;;;6.05;3.25;;;;;;;-2.4;83.46484;95731.33;;;;
2021/01/19 01:34:12;;;;;;;6.849999;3.6;;;;;;;-2.57;83.22461;95733.83;;;;
2021/01/19 01:35:12;;;;;;;6.849999;3.6;;;;;;;-2.57;83.22461;95733.83;;;;
2021/01/19 01:36:14;;;;;;;6.849999;3.6;;;;;;;-2.57;83.22461;95733.83;;;;
2021/01/19 01:37:15;;;;;;;6.849999;3.6;;;;;;;-2.57;83.22461;95733.83;;;;
2021/01/19 01:38:15;;;;;;;6.849999;3.6;;;;;;;-2.57;83.22461;95733.83;;;;
2021/01/19 01:39:16;;;;;;;6.849999;3.6;;;;;;;-2.57;83.22461;95733.83;;;;
2021/01/19 01:40:16;;;;;;;6.849999;3.6;;;;;;;-2.57;83.22461;95733.83;;;;
2021/01/19 01:41:19;;;;;;;6.849999;3.6;;;;;;;-2.57;83.22461;95733.83;;;;
2021/01/19 01:42:21;;;;;;;6.849999;3.6;;;;;;;-2.57;83.22461;95733.83;;;;
2021/01/19 01:43:22;;;;;;;6.849999;3.6;;;;;;;-2.57;83.22461;95733.83;;;;
2021/01/19 01:44:22;;;;;;;5.599999;3.5;;;;;;;-2.8;83.02539;95734.69;;;;
2021/01/19 01:45:23;;;;;;;5.599999;3.5;;;;;;;-2.8;83.02539;95734.69;;;;
2021/01/19 01:46:25;;;;;;;5.599999;3.5;;;;;;;-2.8;83.02539;95734.69;;;;
2021/01/19 01:47:26;;;;;;;5.599999;3.5;;;;;;;-2.8;83.02539;95734.69;;;;
2021/01/19 01:48:28;;;;;;;5.599999;3.5;;;;;;;-2.8;83.02539;95734.69;;;;
2021/01/19 01:49:28;;;;;;;5.599999;3.5;;;;;;;-2.8;83.02539;95734.69;;;;
2021/01/19 01:50:28;;;;;;;5.599999;3.5;;;;;;;-2.8;83.02539;95734.69;;;;
2021/01/19 01:51:29;;;;;;;5.599999;3.5;;;;;;;-2.8;83.02539;95734.69;;;;
2021/01/19 01:52:31;;;;;;;5.599999;3.5;;;;;;;-2.8;83.02539;95734.69;;;;
2021/01/19 01:53:32;;;;;;;5.599999;3.5;;;;;;;-2.8;83.02539;95734.69;;;;
2021/01/19 01:54:33;;;;;;;5.599999;3.5;;;;;;;-2.8;83.02539;95734.69;;;;
2021/01/19 01:55:34;;;;;;;4.900001;3.45;;;;;;;-3;82.92285;95733.54;;;;
2021/01/19 01:56:35;;;;;;;4.900001;3.45;;;;;;;-3;82.92285;95733.54;;;;
2021/01/19 01:57:36;;;;;;;4.900001;3.45;;;;;;;-3;82.92285;95733.54;;;;
2021/01/19 01:58:37;;;;;;;4.900001;3.45;;;;;;;-3;82.92285;95733.54;;;;
2021/01/19 01:59:38;;;;;;;4.900001;3.45;;;;;;;-3;82.92285;95733.54;;;;
2021/01/19 02:00:39;;;;;;;4.900001;3.45;;;;;;;-3;82.92285;95733.54;;;;
2021/01/19 02:01:39;;;;;;;4.900001;3.45;;;;;;;-3;82.92285;95733.54;;;;
2021/01/19 02:02:40;;;;;;;4.900001;3.45;;;;;;;-3;82.92285;95733.54;;;;
2021/01/19 02:03:49;;;;;;;4.900001;3.45;;;;;;;-3;82.92285;95733.54;;;;
2021/01/19 02:04:49;;;;;;;4.900001;3.45;;;;;;;-3;82.92285;95733.54;;;;
2021/01/19 02:05:50;;;;;;;6.999999;3.15;;;;;;;-3.17;82.81738;95724.64;;;;
2021/01/19 02:06:51;;;;;;;6.999999;3.15;;;;;;;-3.17;82.81738;95724.64;;;;
2021/01/19 02:07:51;;;;;;;6.999999;3.15;;;;;;;-3.17;82.81738;95724.64;;;;
2021/01/19 02:09:06;;;;;;;6.999999;3.15;;;;;;;-3.17;82.81738;95724.64;;;;
2021/01/19 02:10:17;;;;;;;6.999999;3.15;;;;;;;-3.17;82.81738;95724.64;;;;
2021/01/19 02:11:23;;;;;;;6.999999;3.15;;;;;;;-3.17;82.81738;95724.64;;;;
2021/01/19 02:12:32;;;;;;;6.999999;3.15;;;;;;;-3.17;82.81738;95724.64;;;;
2021/01/19 02:13:42;;;;;;;6.999999;3.15;;;;;;;-3.17;82.81738;95724.64;;;;
2021/01/19 02:14:57;;;;;;;6.999999;3.15;;;;;;;-3.17;82.81738;95724.64;;;;
2021/01/19 02:16:01;;;;;;;6.999999;3.15;;;;;;;-3.17;82.81738;95724.64;;;;
2021/01/19 02:17:15;;;;;;;6.200001;3.85;;;;;;;-3.31;82.82227;95704.81;;;;
2021/01/19 02:18:24;;;;;;;6.200001;3.85;;;;;;;-3.31;82.82227;95704.81;;;;
2021/01/19 02:19:39;;;;;;;6.200001;3.85;;;;;;;-3.31;82.82227;95704.81;;;;
2021/01/19 02:21:57;;;;;;;6.200001;3.85;;;;;;;-3.31;82.82227;95704.81;;;;
2021/01/19 02:23:15;;;;;;;6.200001;3.85;;;;;;;-3.31;82.82227;95704.81;;;;
2021/01/19 02:24:24;;;;;;;6.200001;3.85;;;;;;;-3.31;82.82227;95704.81;;;;
2021/01/19 02:25:33;;;;;;;6.200001;3.85;;;;;;;-3.31;82.82227;95704.81;;;;
2021/01/19 02:26:54;;;;;;;7.750001;4.15;;;;;;;-3.43;82.74707;95703.27;;;;
2021/01/19 02:28:13;;;;;;;7.750001;4.15;;;;;;;-3.43;82.74707;95703.27;;;;
2021/01/19 02:29:21;;;;;;;7.750001;4.15;;;;;;;-3.43;82.74707;95703.27;;;;
2021/01/19 02:31:41;;;;;;;7.750001;4.15;;;;;;;-3.43;82.74707;95703.27;;;;
2021/01/19 02:32:56;;;;;;;7.750001;4.15;;;;;;;-3.43;82.74707;95703.27;;;;
2021/01/19 02:34:03;;;;;;;7.750001;4.15;;;;;;;-3.43;82.74707;95703.27;;;;
2021/01/19 02:35:11;;;;;;;7.750001;4.15;;;;;;;-3.43;82.74707;95703.27;;;;
2021/01/19 02:36:19;;;;;;;7.750001;4.15;;;;;;;-3.43;82.74707;95703.27;;;;
2021/01/19 02:37:30;;;;;;;8.4;4.2;;;;;;;-3.49;83.20898;95683.65;;;;
2021/01/19 02:38:37;;;;;;;8.4;4.2;;;;;;;-3.49;83.20898;95683.65;;;;
2021/01/19 02:39:48;;;;;;;8.4;4.2;;;;;;;-3.49;83.20898;95683.65;;;;
2021/01/19 02:40:54;;;;;;;8.4;4.2;;;;;;;-3.49;83.20898;95683.65;;;;
2021/01/19 02:41:56;;;;;;;8.4;4.2;;;;;;;-3.49;83.20898;95683.65;;;;
2021/01/19 02:42:59;;;;;;;8.4;4.2;;;;;;;-3.49;83.20898;95683.65;;;;
2021/01/19 02:44:10;;;;;;;8.4;4.2;;;;;;;-3.49;83.20898;95683.65;;;;
2021/01/19 02:45:19;;;;;;;8.4;4.2;;;;;;;-3.49;83.20898;95683.65;;;;
2021/01/19 02:46:20;;;;;;;8.4;4.2;;;;;;;-3.49;83.20898;95683.65;;;;
2021/01/19 02:47:21;;;;;;;8.4;4.2;;;;;;;-3.49;83.20898;95683.65;;;;
2021/01/19 02:48:21;;;;;;;7.899999;4.299999;;;;;;;-3.4;82.99219;95677.43;;;;
2021/01/19 02:49:23;;;;;;;7.899999;4.299999;;;;;;;-3.4;82.99219;95677.43;;;;
2021/01/19 02:50:23;;;;;;;7.899999;4.299999;;;;;;;-3.4;82.99219;95677.43;;;;
2021/01/19 02:51:24;;;;;;;7.899999;4.299999;;;;;;;-3.4;82.99219;95677.43;;;;
2021/01/19 02:52:24;;;;;;;7.899999;4.299999;;;;;;;-3.4;82.99219;95677.43;;;;
2021/01/19 02:53:26;;;;;;;7.899999;4.299999;;;;;;;-3.4;82.99219;95677.43;;;;
2021/01/19 02:54:27;;;;;;;7.899999;4.299999;;;;;;;-3.4;82.99219;95677.43;;;;
2021/01/19 02:55:28;;;;;;;7.899999;4.299999;;;;;;;-3.4;82.99219;95677.43;;;;
2021/01/19 02:56:29;;;;;;;7.899999;4.299999;;;;;;;-3.4;82.99219;95677.43;;;;
2021/01/19 02:57:36;;;;;;;7.899999;4.299999;;;;;;;-3.4;82.99219;95677.43;;;;
2021/01/19 02:58:53;;;;;;;7.200001;3.95;;;;;;;-3.39;82.55762;95669.03;;;;
2021/01/19 03:00:08;;;;;;;7.200001;3.95;;;;;;;-3.39;82.55762;95669.03;;;;
2021/01/19 03:01:12;;;;;;;7.200001;3.95;;;;;;;-3.39;82.55762;95669.03;;;;
2021/01/19 03:02:18;;;;;;;7.200001;3.95;;;;;;;-3.39;82.55762;95669.03;;;;
2021/01/19 03:03:22;;;;;;;7.200001;3.95;;;;;;;-3.39;82.55762;95669.03;;;;
2021/01/19 03:04:23;;;;;;;7.200001;3.95;;;;;;;-3.39;82.55762;95669.03;;;;
2021/01/19 03:05:25;;;;;;;7.200001;3.95;;;;;;;-3.39;82.55762;95669.03;;;;
2021/01/19 03:06:28;;;;;;;7.200001;3.95;;;;;;;-3.39;82.55762;95669.03;;;;
2021/01/19 03:07:31;;;;;;;7.200001;3.95;;;;;;;-3.39;82.55762;95669.03;;;;
2021/01/19 03:08:36;;;;;;;7.200001;3.95;;;;;;;-3.39;82.55762;95669.03;;;;
2021/01/19 03:09:40;;;;;;;9.950001;4.500001;;;;;;;-3.4;82.56641;95665.64;;;;
2021/01/19 03:10:42;;;;;;;9.950001;4.500001;;;;;;;-3.4;82.56641;95665.64;;;;
2021/01/19 03:11:43;;;;;;;9.950001;4.500001;;;;;;;-3.4;82.56641;95665.64;;;;
2021/01/19 03:12:47;;;;;;;9.950001;4.500001;;;;;;;-3.4;82.56641;95665.64;;;;
2021/01/19 03:13:48;;;;;;;9.950001;4.500001;;;;;;;-3.4;82.56641;95665.64;;;;
2021/01/19 03:14:49;;;;;;;9.950001;4.500001;;;;;;;-3.4;82.56641;95665.64;;;;
2021/01/19 03:15:50;;;;;;;9.950001;4.500001;;;;;;;-3.4;82.56641;95665.64;;;;
2021/01/19 03:17:04;;;;;;;9.950001;4.500001;;;;;;;-3.4;82.56641;95665.64;;;;
2021/01/19 03:18:05;;;;;;;9.950001;4.500001;;;;;;;-3.4;82.56641;95665.64;;;;
2021/01/19 03:19:05;;;;;;;9.950001;4.500001;;;;;;;-3.4;82.56641;95665.64;;;;
2021/01/19 03:20:06;;;;;;;9.950001;4.500001;;;;;;;-3.4;82.56641;95665.64;;;;
2021/01/19 03:21:08;;;;;;;7.400001;3.999999;;;;;;;-3.46;82.28711;95651.2;;;;
2021/01/19 03:22:10;;;;;;;7.400001;3.999999;;;;;;;-3.46;82.28711;95651.2;;;;
2021/01/19 03:23:11;;;;;;;7.400001;3.999999;;;;;;;-3.46;82.28711;95651.2;;;;
2021/01/19 03:24:11;;;;;;;7.400001;3.999999;;;;;;;-3.46;82.28711;95651.2;;;;
2021/01/19 03:25:12;;;;;;;7.400001;3.999999;;;;;;;-3.46;82.28711;95651.2;;;;
2021/01/19 03:26:12;;;;;;;7.400001;3.999999;;;;;;;-3.46;82.28711;95651.2;;;;
2021/01/19 03:27:13;;;;;;;7.400001;3.999999;;;;;;;-3.46;82.28711;95651.2;;;;
2021/01/19 03:28:14;;;;;;;7.400001;3.999999;;;;;;;-3.46;82.28711;95651.2;;;;
2021/01/19 03:29:14;;;;;;;7.400001;3.999999;;;;;;;-3.46;82.28711;95651.2;;;;
2021/01/19 03:30:15;;;;;;;7.400001;3.999999;;;;;;;-3.46;82.28711;95651.2;;;;
2021/01/19 03:31:16;;;;;;;9.7;4.55;;;;;;;-3.5;82.43262;95645.01;;;;
2021/01/19 03:32:16;;;;;;;9.7;4.55;;;;;;;-3.5;82.43262;95645.01;;;;
2021/01/19 03:33:17;;;;;;;9.7;4.55;;;;;;;-3.5;82.43262;95645.01;;;;
2021/01/19 03:34:18;;;;;;;9.7;4.55;;;;;;;-3.5;82.43262;95645.01;;;;
2021/01/19 03:35:18;;;;;;;9.7;4.55;;;;;;;-3.5;82.43262;95645.01;;;;
2021/01/19 03:36:19;;;;;;;9.7;4.55;;;;;;;-3.5;82.43262;95645.01;;;;
2021/01/19 03:37:19;;;;;;;9.7;4.55;;;;;;;-3.5;82.43262;95645.01;;;;
2021/01/19 03:38:20;;;;;;;9.7;4.55;;;;;;;-3.5;82.43262;95645.01;;;;
2021/01/19 03:39:20;;;;;;;9.7;4.55;;;;;;;-3.5;82.43262;95645.01;;;;
2021/01/19 03:40:21;;;;;;;9.7;4.55;;;;;;;-3.5;82.43262;95645.01;;;;
2021/01/19 03:41:21;;;;;;;9.7;4.55;;;;;;;-3.5;82.43262;95645.01;;;;
2021/01/19 03:42:22;;;;;;;7.75;4.15;;;;;;;-3.46;82.80371;95643.77;;;;
2021/01/19 03:43:22;;;;;;;7.75;4.15;;;;;;;-3.46;82.80371;95643.77;;;;
2021/01/19 03:44:23;;;;;;;7.75;4.15;;;;;;;-3.46;82.80371;95643.77;;;;
2021/01/19 03:45:23;;;;;;;7.75;4.15;;;;;;;-3.46;82.80371;95643.77;;;;
2021/01/19 03:46:24;;;;;;;7.75;4.15;;;;;;;-3.46;82.80371;95643.77;;;;
2021/01/19 03:47:25;;;;;;;7.75;4.15;;;;;;;-3.46;82.80371;95643.77;;;;
2021/01/19 03:48:26;;;;;;;7.75;4.15;;;;;;;-3.46;82.80371;95643.77;;;;
2021/01/19 03:49:26;;;;;;;7.75;4.15;;;;;;;-3.46;82.80371;95643.77;;;;
2021/01/19 03:50:28;;;;;;;7.75;4.15;;;;;;;-3.46;82.80371;95643.77;;;;
2021/01/19 03:51:28;;;;;;;7.75;4.15;;;;;;;-3.46;82.80371;95643.77;;;;
2021/01/19 03:52:29;;;;;;;7.399999;4.1;;;;;;;-3.38;82.66309;95639.95;;;;
2021/01/19 03:53:29;;;;;;;7.399999;4.1;;;;;;;-3.38;82.66309;95639.95;;;;
2021/01/19 03:54:30;;;;;;;7.399999;4.1;;;;;;;-3.38;82.66309;95639.95;;;;
2021/01/19 03:55:30;;;;;;;7.399999;4.1;;;;;;;-3.38;82.66309;95639.95;;;;
2021/01/19 03:56:31;;;;;;;7.399999;4.1;;;;;;;-3.38;82.66309;95639.95;;;;
2021/01/19 03:57:32;;;;;;;7.399999;4.1;;;;;;;-3.38;82.66309;95639.95;;;;
2021/01/19 03:58:32;;;;;;;7.399999;4.1;;;;;;;-3.38;82.66309;95639.95;;;;
2021/01/19 03:59:33;;;;;;;7.399999;4.1;;;;;;;-3.38;82.66309;95639.95;;;;
2021/01/19 04:00:33;;;;;;;7.399999;4.1;;;;;;;-3.38;82.66309;95639.95;;;;
2021/01/19 04:01:34;;;;;;;7.399999;4.1;;;;;;;-3.38;82.66309;95639.95;;;;
2021/01/19 04:02:39;;;;;;;7.399999;4.1;;;;;;;-3.38;82.66309;95639.95;;;;
2021/01/19 04:03:40;;;;;;;6.45;4.050001;;;;;;;-3.46;82.19434;95625.3;;;;
2021/01/19 04:04:40;;;;;;;6.45;4.050001;;;;;;;-3.46;82.19434;95625.3;;;;
2021/01/19 04:05:41;;;;;;;6.45;4.050001;;;;;;;-3.46;82.19434;95625.3;;;;
2021/01/19 04:06:41;;;;;;;6.45;4.050001;;;;;;;-3.46;82.19434;95625.3;;;;
2021/01/19 04:07:42;;;;;;;6.45;4.050001;;;;;;;-3.46;82.19434;95625.3;;;;
2021/01/19 04:08:43;;;;;;;6.45;4.050001;;;;;;;-3.46;82.19434;95625.3;;;;
2021/01/19 04:09:44;;;;;;;6.45;4.050001;;;;;;;-3.46;82.19434;95625.3;;;;
2021/01/19 04:10:48;;;;;;;6.45;4.050001;;;;;;;-3.46;82.19434;95625.3;;;;
2021/01/19 04:11:49;;;;;;;6.45;4.050001;;;;;;;-3.46;82.19434;95625.3;;;;
2021/01/19 04:12:49;;;;;;;6.45;4.050001;;;;;;;-3.46;82.19434;95625.3;;;;
2021/01/19 04:13:49;;;;;;;7.05;4.099999;;;;;;;-3.65;82.19727;95613.48;;;;
2021/01/19 04:14:50;;;;;;;7.05;4.099999;;;;;;;-3.65;82.19727;95613.48;;;;
2021/01/19 04:15:51;;;;;;;7.05;4.099999;;;;;;;-3.65;82.19727;95613.48;;;;
2021/01/19 04:16:51;;;;;;;7.05;4.099999;;;;;;;-3.65;82.19727;95613.48;;;;
2021/01/19 04:17:52;;;;;;;7.05;4.099999;;;;;;;-3.65;82.19727;95613.48;;;;
2021/01/19 04:18:53;;;;;;;7.05;4.099999;;;;;;;-3.65;82.19727;95613.48;;;;
2021/01/19 04:19:53;;;;;;;7.05;4.099999;;;;;;;-3.65;82.19727;95613.48;;;;
2021/01/19 04:20:54;;;;;;;7.05;4.099999;;;;;;;-3.65;82.19727;95613.48;;;;
2021/01/19 04:21:54;;;;;;;7.05;4.099999;;;;;;;-3.65;82.19727;95613.48;;;;
2021/01/19 04:22:55;;;;;;;7.05;4.099999;;;;;;;-3.65;82.19727;95613.48;;;;
2021/01/19 04:23:55;;;;;;;7.05;4.099999;;;;;;;-3.65;82.19727;95613.48;;;;
2021/01/19 04:24:56;;;;;;;6.649999;4.15;;;;;;;-3.84;82.28613;95611.22;;;;
2021/01/19 04:25:56;;;;;;;6.649999;4.15;;;;;;;-3.84;82.28613;95611.22;;;;
2021/01/19 04:26:57;;;;;;;6.649999;4.15;;;;;;;-3.84;82.28613;95611.22;;;;
2021/01/19 04:27:58;;;;;;;6.649999;4.15;;;;;;;-3.84;82.28613;95611.22;;;;
2021/01/19 04:28:58;;;;;;;6.649999;4.15;;;;;;;-3.84;82.28613;95611.22;;;;
2021/01/19 04:30:03;;;;;;;6.649999;4.15;;;;;;;-3.84;82.28613;95611.22;;;;
2021/01/19 04:31:06;;;;;;;6.649999;4.15;;;;;;;-3.84;82.28613;95611.22;;;;
2021/01/19 04:32:06;;;;;;;6.649999;4.15;;;;;;;-3.84;82.28613;95611.22;;;;
2021/01/19 04:33:07;;;;;;;6.649999;4.15;;;;;;;-3.84;82.28613;95611.22;;;;
2021/01/19 04:34:08;;;;;;;6.649999;4.15;;;;;;;-3.84;82.28613;95611.22;;;;
2021/01/19 04:35:08;;;;;;;6.05;4.05;;;;;;;-3.97;82.35352;95597.06;;;;
2021/01/19 04:36:09;;;;;;;6.05;4.05;;;;;;;-3.97;82.35352;95597.06;;;;
2021/01/19 04:37:10;;;;;;;6.05;4.05;;;;;;;-3.97;82.35352;95597.06;;;;
2021/01/19 04:38:10;;;;;;;6.05;4.05;;;;;;;-3.97;82.35352;95597.06;;;;
2021/01/19 04:39:11;;;;;;;6.05;4.05;;;;;;;-3.97;82.35352;95597.06;;;;
2021/01/19 04:40:11;;;;;;;6.05;4.05;;;;;;;-3.97;82.35352;95597.06;;;;
2021/01/19 04:41:12;;;;;;;6.05;4.05;;;;;;;-3.97;82.35352;95597.06;;;;
2021/01/19 04:42:14;;;;;;;6.05;4.05;;;;;;;-3.97;82.35352;95597.06;;;;
2021/01/19 04:43:18;;;;;;;6.05;4.05;;;;;;;-3.97;82.35352;95597.06;;;;
2021/01/19 04:44:20;;;;;;;6.05;4.05;;;;;;;-3.97;82.35352;95597.06;;;;
2021/01/19 04:45:21;;;;;;;6.05;4.05;;;;;;;-3.97;82.35352;95597.06;;;;
2021/01/19 04:46:22;;;;;;;11.6;4.55;;;;;;;-3.98;82.34082;95602.01;;;;
2021/01/19 04:47:22;;;;;;;11.6;4.55;;;;;;;-3.98;82.34082;95602.01;;;;
2021/01/19 04:48:23;;;;;;;11.6;4.55;;;;;;;-3.98;82.34082;95602.01;;;;
2021/01/19 04:49:25;;;;;;;11.6;4.55;;;;;;;-3.98;82.34082;95602.01;;;;
2021/01/19 04:50:25;;;;;;;11.6;4.55;;;;;;;-3.98;82.34082;95602.01;;;;
2021/01/19 04:51:28;;;;;;;11.6;4.55;;;;;;;-3.98;82.34082;95602.01;;;;
2021/01/19 04:52:33;;;;;;;11.6;4.55;;;;;;;-3.98;82.34082;95602.01;;;;
2021/01/19 04:53:34;;;;;;;11.6;4.55;;;;;;;-3.98;82.34082;95602.01;;;;
2021/01/19 04:54:41;;;;;;;11.6;4.55;;;;;;;-3.98;82.34082;95602.01;;;;
2021/01/19 04:56:02;;;;;;;11.6;4.55;;;;;;;-3.98;82.34082;95602.01;;;;
2021/01/19 04:57:03;;;;;;;6.550001;3.9;;;;;;;-3.98;82.12402;95586.19;;;;
2021/01/19 04:58:13;;;;;;;6.550001;3.9;;;;;;;-3.98;82.12402;95586.19;;;;
2021/01/19 04:59:20;;;;;;;6.550001;3.9;;;;;;;-3.98;82.12402;95586.19;;;;
2021/01/19 05:00:22;;;;;;;6.550001;3.9;;;;;;;-3.98;82.12402;95586.19;;;;
2021/01/19 05:01:28;;;;;;;6.550001;3.9;;;;;;;-3.98;82.12402;95586.19;;;;
2021/01/19 05:02:38;;;;;;;6.550001;3.9;;;;;;;-3.98;82.12402;95586.19;;;;
2021/01/19 05:04:11;;;;;;;6.550001;3.9;;;;;;;-3.98;82.12402;95586.19;;;;
2021/01/19 05:05:41;;;;;;;6.550001;3.9;;;;;;;-3.98;82.12402;95586.19;;;;
2021/01/19 05:07:17;;;;;;;4.45;2.95;;;;;;;-3.94;82.37891;95573.04;;;;
2021/01/19 05:10:26;;;;;;;4.45;2.95;;;;;;;-3.94;82.37891;95573.04;;;;
2021/01/19 05:11:34;;;;;;;4.45;2.95;;;;;;;-3.94;82.37891;95573.04;;;;
2021/01/19 05:12:48;;;;;;;4.45;2.95;;;;;;;-3.94;82.37891;95573.04;;;;
2021/01/19 05:13:59;;;;;;;4.45;2.95;;;;;;;-3.94;82.37891;95573.04;;;;
2021/01/19 05:15:01;;;;;;;4.45;2.95;;;;;;;-3.94;82.37891;95573.04;;;;
2021/01/19 05:16:03;;;;;;;4.45;2.95;;;;;;;-3.94;82.37891;95573.04;;;;
2021/01/19 05:17:05;;;;;;;4.45;2.95;;;;;;;-3.94;82.37891;95573.04;;;;
2021/01/19 05:18:06;;;;;;;4.35;2.7;;;;;;;-3.99;82.41113;95560.77;;;;
2021/01/19 05:19:09;;;;;;;4.35;2.7;;;;;;;-3.99;82.41113;95560.77;;;;
2021/01/19 05:20:09;;;;;;;4.35;2.7;;;;;;;-3.99;82.41113;95560.77;;;;
2021/01/19 05:21:11;;;;;;;4.35;2.7;;;;;;;-3.99;82.41113;95560.77;;;;
2021/01/19 05:22:13;;;;;;;4.35;2.7;;;;;;;-3.99;82.41113;95560.77;;;;
2021/01/19 05:23:21;;;;;;;4.35;2.7;;;;;;;-3.99;82.41113;95560.77;;;;
2021/01/19 05:24:22;;;;;;;4.35;2.7;;;;;;;-3.99;82.41113;95560.77;;;;
2021/01/19 05:25:23;;;;;;;4.35;2.7;;;;;;;-3.99;82.41113;95560.77;;;;
2021/01/19 05:26:23;;;;;;;4.35;2.7;;;;;;;-3.99;82.41113;95560.77;;;;
2021/01/19 05:27:24;;;;;;;4.35;2.7;;;;;;;-3.99;82.41113;95560.77;;;;
2021/01/19 05:28:24;;;;;;;4.95;2.55;;;;;;;-4.06;82.40918;95553.09;;;;
2021/01/19 05:29:30;;;;;;;4.95;2.55;;;;;;;-4.06;82.40918;95553.09;;;;
2021/01/19 05:30:31;;;;;;;4.95;2.55;;;;;;;-4.06;82.40918;95553.09;;;;
2021/01/19 05:31:34;;;;;;;4.95;2.55;;;;;;;-4.06;82.40918;95553.09;;;;
2021/01/19 05:32:35;;;;;;;4.95;2.55;;;;;;;-4.06;82.40918;95553.09;;;;
2021/01/19 05:33:38;;;;;;;4.95;2.55;;;;;;;-4.06;82.40918;95553.09;;;;
2021/01/19 05:34:38;;;;;;;4.95;2.55;;;;;;;-4.06;82.40918;95553.09;;;;
2021/01/19 05:35:38;;;;;;;4.95;2.55;;;;;;;-4.06;82.40918;95553.09;;;;
2021/01/19 05:36:39;;;;;;;4.95;2.55;;;;;;;-4.06;82.40918;95553.09;;;;
2021/01/19 05:37:43;;;;;;;4.95;2.55;;;;;;;-4.06;82.40918;95553.09;;;;
2021/01/19 05:38:54;;;;;;;4.45;2.3;;;;;;;-4.1;82.43066;95541.66;;;;
2021/01/19 05:39:56;;;;;;;4.45;2.3;;;;;;;-4.1;82.43066;95541.66;;;;
2021/01/19 05:41:03;;;;;;;4.45;2.3;;;;;;;-4.1;82.43066;95541.66;;;;
2021/01/19 05:42:04;;;;;;;4.45;2.3;;;;;;;-4.1;82.43066;95541.66;;;;
2021/01/19 05:43:04;;;;;;;4.45;2.3;;;;;;;-4.1;82.43066;95541.66;;;;
2021/01/19 05:44:09;;;;;;;4.45;2.3;;;;;;;-4.1;82.43066;95541.66;;;;
2021/01/19 05:45:19;;;;;;;4.45;2.3;;;;;;;-4.1;82.43066;95541.66;;;;
2021/01/19 05:46:20;;;;;;;4.45;2.3;;;;;;;-4.1;82.43066;95541.66;;;;
2021/01/19 05:47:29;;;;;;;4.45;2.3;;;;;;;-4.1;82.43066;95541.66;;;;
2021/01/19 05:48:32;;;;;;;4.45;2.3;;;;;;;-4.1;82.43066;95541.66;;;;